createdAt,value
2022-08-22T00:01:13.491Z,84.13
2022-08-22T00:02:43.289Z,77.30
2022-08-22T00:02:57.486Z,83.27
2022-08-22T00:04:21.267Z,84.26
2022-08-22T00:07:18.261Z,83.91
2022-08-22T00:10:25.401Z,84.44
2022-08-22T00:13:18.544Z,84.58
2022-08-22T00:16:03.746Z,84.76
2022-08-22T00:19:02.941Z,84.84
2022-08-22T00:22:07.925Z,84.41
2022-08-22T00:25:47.144Z,84.04
2022-08-22T00:28:41.981Z,83.94
2022-08-22T00:31:31.249Z,84.91
2022-08-22T00:34:26.476Z,84.78
2022-08-22T00:37:20.756Z,84.52
2022-08-22T00:40:28.593Z,84.26
2022-08-22T00:43:30.679Z,85.28
2022-08-22T00:46:23.764Z,86.18
2022-08-22T00:49:40.053Z,85.12
2022-08-22T00:52:52.696Z,85.03
2022-08-22T00:56:02.001Z,85.08
2022-08-22T00:59:18.083Z,85.32
2022-08-22T01:02:21.043Z,86.46
2022-08-22T01:05:38.865Z,86.30
2022-08-22T01:08:39.128Z,85.79
2022-08-22T01:11:42.796Z,86.88
2022-08-22T01:14:34.387Z,87.30
2022-08-22T01:17:48.632Z,86.77
2022-08-22T01:20:43.313Z,86.91
2022-08-22T01:23:50.739Z,87.31
2022-08-22T01:27:13.250Z,87.89
2022-08-22T01:30:44.239Z,88.04
2022-08-22T01:33:55.669Z,88.42
2022-08-22T01:37:07.954Z,87.50
2022-08-22T01:40:11.431Z,86.46
2022-08-22T01:43:12.049Z,86.49
2022-08-22T01:46:21.202Z,85.98
2022-08-22T01:49:38.649Z,86.85
2022-08-22T01:52:39.009Z,87.67
2022-08-22T01:55:48.021Z,89.60
2022-08-22T01:58:36.968Z,90.25
2022-08-22T02:01:25.497Z,90.31
2022-08-22T02:04:18.088Z,89.46
2022-08-22T02:07:20.011Z,86.60
2022-08-22T02:10:41.500Z,88.04
2022-08-22T02:13:41.952Z,89.45
2022-08-22T02:16:40.122Z,89.16
2022-08-22T02:19:39.963Z,88.12
2022-08-22T02:22:56.602Z,86.65
2022-08-22T02:26:03.077Z,85.59
2022-08-22T02:29:08.721Z,85.70
2022-08-22T02:32:00.687Z,86.47
2022-08-22T02:34:55.244Z,87.06
2022-08-22T02:38:05.345Z,89.37
2022-08-22T02:41:04.254Z,92.23
2022-08-22T02:43:57.188Z,89.29
2022-08-22T02:46:51.331Z,88.72
2022-08-22T02:49:51.017Z,89.54
2022-08-22T02:53:08.508Z,89.66
2022-08-22T02:56:05.969Z,87.56
2022-08-22T02:59:12.824Z,86.14
2022-08-22T03:02:18.714Z,86.53
2022-08-22T03:05:25.387Z,87.54
2022-08-22T03:08:27.327Z,87.80
2022-08-22T03:11:31.352Z,87.53
2022-08-22T03:14:41.798Z,87.04
2022-08-22T03:17:33.052Z,87.67
2022-08-22T03:20:45.403Z,88.43
2022-08-22T03:23:45.922Z,88.58
2022-08-22T03:27:00.793Z,89.20
2022-08-22T03:29:51.202Z,89.28
2022-08-22T03:32:55.486Z,89.57
2022-08-22T03:35:46.381Z,89.76
2022-08-22T03:38:34.318Z,90.15
2022-08-22T03:41:35.009Z,90.11
2022-08-22T03:44:51.436Z,89.82
2022-08-22T03:48:14.525Z,89.00
2022-08-22T03:51:13.561Z,88.17
2022-08-22T03:54:20.069Z,88.54
2022-08-22T03:57:26.863Z,88.82
2022-08-22T04:00:32.160Z,89.15
2022-08-22T04:03:59.033Z,88.88
2022-08-22T04:07:32.309Z,89.19
2022-08-22T04:10:53.030Z,89.08
2022-08-22T04:14:03.411Z,88.59
2022-08-22T04:17:25.316Z,91.71
2022-08-22T04:20:32.422Z,97.84
2022-08-22T04:23:42.869Z,94.40
2022-08-22T04:26:52.589Z,91.60
2022-08-22T04:29:58.704Z,91.18
2022-08-22T04:32:51.317Z,91.36
2022-08-22T04:35:46.121Z,91.40
2022-08-22T04:38:38.020Z,91.59
2022-08-22T04:41:48.820Z,91.90
2022-08-22T04:44:51.913Z,91.74
2022-08-22T04:47:43.585Z,92.95
2022-08-22T04:50:43.271Z,92.48
2022-08-22T04:53:47.388Z,92.36
2022-08-22T04:56:50.960Z,92.56
2022-08-22T04:59:36.945Z,92.49
2022-08-22T05:02:25.967Z,92.61
2022-08-22T05:05:17.518Z,93.78
2022-08-22T05:08:06.000Z,94.75
2022-08-22T05:10:54.074Z,95.13
2022-08-22T05:13:46.944Z,96.00
2022-08-22T05:16:40.938Z,97.19
2022-08-22T05:19:40.017Z,97.89
2022-08-22T05:22:33.013Z,98.89
2022-08-22T05:25:24.277Z,99.09
2022-08-22T05:28:20.920Z,97.64
2022-08-22T05:31:11.105Z,96.64
2022-08-22T05:34:04.231Z,96.53
2022-08-22T05:37:03.783Z,96.63
2022-08-22T05:39:58.086Z,96.37
2022-08-22T05:42:43.874Z,95.87
2022-08-22T05:45:35.165Z,95.31
2022-08-22T05:48:26.497Z,94.68
2022-08-22T05:51:24.251Z,94.42
2022-08-22T05:54:17.118Z,93.86
2022-08-22T05:57:08.130Z,95.33
2022-08-22T06:00:01.197Z,96.14
2022-08-22T06:03:03.384Z,96.08
2022-08-22T06:05:53.218Z,96.32
2022-08-22T06:08:48.409Z,95.73
2022-08-22T06:11:51.940Z,95.28
2022-08-22T06:14:56.617Z,95.22
2022-08-22T06:17:47.468Z,95.86
2022-08-22T06:21:02.481Z,95.83
2022-08-22T06:23:53.634Z,95.66
2022-08-22T06:26:48.704Z,95.29
2022-08-22T06:29:37.801Z,94.76
2022-08-22T06:32:32.631Z,93.95
2022-08-22T06:35:40.547Z,92.94
2022-08-22T06:38:32.005Z,90.74
2022-08-22T06:41:19.963Z,89.23
2022-08-22T06:44:06.911Z,88.59
2022-08-22T06:46:57.475Z,88.56
2022-08-22T06:49:45.083Z,87.01
2022-08-22T06:52:37.150Z,86.12
2022-08-22T06:55:24.981Z,85.41
2022-08-22T06:58:17.088Z,83.29
2022-08-22T07:01:12.235Z,82.27
2022-08-22T07:04:03.156Z,82.44
2022-08-22T07:06:51.177Z,82.67
2022-08-22T07:09:40.394Z,83.23
2022-08-22T07:12:35.492Z,80.60
2022-08-22T07:15:23.825Z,80.45
2022-08-22T07:18:14.709Z,78.48
2022-08-22T07:21:04.700Z,77.05
2022-08-22T07:23:50.781Z,74.97
2022-08-22T07:27:18.132Z,74.00
2022-08-22T07:30:13.092Z,75.03
2022-08-22T07:33:26.352Z,72.13
2022-08-22T07:36:36.604Z,70.83
2022-08-22T07:39:35.291Z,66.21
2022-08-22T07:42:44.058Z,64.32
2022-08-22T07:45:32.791Z,63.57
2022-08-22T07:48:29.157Z,62.30
2022-08-22T07:51:17.847Z,59.20
2022-08-22T07:54:07.451Z,58.22
2022-08-22T07:57:02.148Z,55.33
2022-08-22T07:59:52.248Z,53.71
2022-08-22T08:02:44.722Z,51.40
2022-08-22T08:05:36.978Z,50.55
2022-08-22T08:08:29.491Z,52.23
2022-08-22T08:11:16.808Z,50.15
2022-08-22T08:14:06.468Z,49.66
2022-08-22T08:17:04.217Z,48.87
2022-08-22T08:19:50.697Z,49.05
2022-08-22T08:22:40.057Z,47.87
2022-08-22T08:25:28.541Z,46.05
2022-08-22T08:28:14.499Z,46.30
2022-08-22T08:31:19.374Z,44.62
2022-08-22T08:34:15.395Z,45.28
2022-08-22T08:37:21.997Z,44.41
2022-08-22T08:40:20.993Z,43.77
2022-08-22T08:43:30.585Z,43.82
2022-08-22T08:46:25.312Z,43.28
2022-08-22T08:49:42.180Z,42.12
2022-08-22T08:52:45.560Z,41.50
2022-08-22T08:56:03.169Z,40.31
2022-08-22T08:59:26.059Z,41.91
2022-08-22T09:02:27.347Z,39.84
2022-08-22T09:05:48.870Z,40.65
2022-08-22T09:08:48.616Z,39.63
2022-08-22T09:12:01.109Z,39.57
2022-08-22T09:15:01.242Z,37.99
2022-08-22T09:18:24.833Z,38.24
2022-08-22T09:21:31.209Z,38.32
2022-08-22T09:24:35.137Z,38.34
2022-08-22T09:27:35.121Z,37.32
2022-08-22T09:30:27.625Z,37.46
2022-08-22T09:33:21.069Z,35.62
2022-08-22T09:36:24.352Z,35.03
2022-08-22T09:39:25.968Z,38.67
2022-08-22T09:42:23.537Z,40.10
2022-08-22T09:45:50.093Z,40.09
2022-08-22T09:48:38.163Z,40.82
2022-08-22T09:51:35.731Z,39.71
2022-08-22T09:54:31.111Z,41.63
2022-08-22T09:57:32.078Z,42.72
2022-08-22T10:00:23.104Z,42.98
2022-08-22T10:03:22.803Z,42.43
2022-08-22T10:06:17.840Z,43.93
2022-08-22T10:09:31.293Z,42.98
2022-08-22T10:12:27.122Z,43.06
2022-08-22T10:15:33.828Z,43.22
2022-08-22T10:18:53.933Z,43.93
2022-08-22T10:21:49.593Z,46.11
2022-08-22T10:25:20.117Z,50.42
2022-08-22T10:28:37.636Z,44.09
2022-08-22T10:31:29.016Z,44.02
2022-08-22T10:34:21.787Z,43.66
2022-08-22T10:37:28.381Z,44.61
2022-08-22T10:40:21.716Z,42.87
2022-08-22T10:43:21.250Z,43.13
2022-08-22T10:46:27.408Z,45.83
2022-08-22T10:49:19.466Z,44.74
2022-08-22T10:52:15.567Z,45.13
2022-08-22T10:55:20.526Z,45.30
2022-08-22T10:58:14.364Z,44.23
2022-08-22T11:01:38.106Z,46.65
2022-08-22T11:04:37.783Z,46.27
2022-08-22T11:07:28.962Z,48.14
2022-08-22T11:10:46.866Z,45.76
2022-08-22T11:14:12.329Z,42.81
2022-08-22T11:17:30.304Z,45.90
2022-08-22T11:20:19.900Z,44.09
2022-08-22T11:23:29.370Z,44.01
2022-08-22T11:26:33.598Z,44.79
2022-08-22T11:29:48.370Z,44.76
2022-08-22T11:33:01.245Z,43.60
2022-08-22T11:36:12.850Z,46.08
2022-08-22T11:39:02.695Z,45.46
2022-08-22T11:41:52.344Z,43.90
2022-08-22T11:44:50.151Z,43.74
2022-08-22T11:47:45.658Z,45.37
2022-08-22T11:50:38.233Z,42.79
2022-08-22T11:53:45.940Z,43.65
2022-08-22T11:56:40.173Z,42.58
2022-08-22T11:59:40.023Z,40.35
2022-08-22T12:02:28.644Z,41.69
2022-08-22T12:05:26.493Z,39.99
2022-08-22T12:08:30.122Z,37.74
2022-08-22T12:11:56.912Z,36.82
2022-08-22T12:14:42.844Z,40.01
2022-08-22T12:17:55.687Z,36.82
2022-08-22T12:20:55.702Z,35.63
2022-08-22T12:24:06.112Z,33.89
2022-08-22T12:27:28.578Z,34.18
2022-08-22T12:30:57.856Z,33.68
2022-08-22T12:34:24.386Z,35.69
2022-08-22T12:37:20.862Z,36.09
2022-08-22T12:40:32.067Z,34.11
2022-08-22T12:43:24.509Z,34.04
2022-08-22T12:46:25.358Z,36.84
2022-08-22T12:49:32.120Z,34.68
2022-08-22T12:52:44.286Z,34.29
2022-08-22T12:55:48.173Z,34.91
2022-08-22T12:58:45.937Z,36.96
2022-08-22T13:01:43.133Z,42.04
2022-08-22T13:04:34.091Z,38.69
2022-08-22T13:07:27.830Z,38.39
2022-08-22T13:10:14.083Z,39.13
2022-08-22T13:13:11.906Z,42.99
2022-08-22T13:16:16.268Z,40.22
2022-08-22T13:19:30.937Z,39.78
2022-08-22T13:22:25.585Z,42.66
2022-08-22T13:25:29.591Z,39.36
2022-08-22T13:28:15.065Z,39.36
2022-08-22T13:31:02.643Z,42.25
2022-08-22T13:33:48.584Z,40.58
2022-08-22T13:36:51.622Z,43.07
2022-08-22T13:39:42.330Z,41.60
2022-08-22T13:42:30.954Z,39.39
2022-08-22T13:45:28.007Z,42.74
2022-08-22T13:48:15.099Z,40.54
2022-08-22T13:51:13.856Z,39.53
2022-08-22T13:54:10.948Z,38.60
2022-08-22T13:57:08.746Z,42.61
2022-08-22T14:00:07.798Z,40.57
2022-08-22T14:03:25.385Z,39.81
2022-08-22T14:06:37.425Z,41.93
2022-08-22T14:09:45.338Z,41.10
2022-08-22T14:12:57.062Z,40.06
2022-08-22T14:15:45.055Z,39.76
2022-08-22T14:18:35.621Z,40.78
2022-08-22T14:21:39.988Z,41.43
2022-08-22T14:24:55.942Z,45.53
2022-08-22T14:27:55.011Z,40.68
2022-08-22T14:31:00.935Z,43.12
2022-08-22T14:33:52.696Z,40.64
2022-08-22T14:36:48.708Z,39.99
2022-08-22T14:39:44.308Z,41.71
2022-08-22T14:42:58.699Z,45.62
2022-08-22T14:45:54.220Z,41.85
2022-08-22T14:49:06.388Z,40.91
2022-08-22T14:51:57.941Z,43.44
2022-08-22T14:54:43.276Z,39.77
2022-08-22T14:57:30.068Z,41.48
2022-08-22T15:00:25.764Z,44.26
2022-08-22T15:03:19.659Z,42.63
2022-08-22T15:06:10.958Z,44.10
2022-08-22T15:08:57.711Z,45.80
2022-08-22T15:11:48.013Z,47.53
2022-08-22T15:14:37.412Z,45.34
2022-08-22T15:17:44.476Z,46.20
2022-08-22T15:20:38.216Z,50.37
2022-08-22T15:23:32.054Z,51.28
2022-08-22T15:26:24.080Z,49.90
2022-08-22T15:29:16.933Z,51.78
2022-08-22T15:32:03.880Z,52.99
2022-08-22T15:34:52.362Z,53.38
2022-08-22T15:38:01.544Z,53.46
2022-08-22T15:40:46.947Z,53.38
2022-08-22T15:43:44.104Z,53.42
2022-08-22T15:46:37.221Z,54.85
2022-08-22T15:49:22.128Z,52.84
2022-08-22T15:52:19.875Z,52.70
2022-08-22T15:55:16.453Z,57.60
2022-08-22T15:58:09.912Z,54.95
2022-08-22T16:01:18.797Z,51.13
2022-08-22T16:04:08.181Z,55.74
2022-08-22T16:06:56.917Z,48.84
2022-08-22T16:09:49.235Z,53.17
2022-08-22T16:12:44.816Z,56.63
2022-08-22T16:15:51.325Z,58.33
2022-08-22T16:18:39.680Z,61.16
2022-08-22T16:21:25.069Z,63.27
2022-08-22T16:24:10.043Z,59.62
2022-08-22T16:26:55.641Z,60.41
2022-08-22T16:29:42.009Z,59.62
2022-08-22T16:32:27.870Z,59.13
2022-08-22T16:35:51.213Z,54.58
2022-08-22T16:40:59.118Z,60.03
2022-08-22T16:43:52.687Z,60.43
2022-08-22T16:46:43.874Z,61.18
2022-08-22T16:49:33.977Z,58.56
2022-08-22T16:52:25.320Z,58.74
2022-08-22T16:55:29.060Z,60.75
2022-08-22T16:58:35.812Z,59.85
2022-08-22T17:01:50.024Z,60.91
2022-08-22T17:04:50.257Z,57.88
2022-08-22T17:08:00.239Z,58.08
2022-08-22T17:11:08.358Z,58.42
2022-08-22T17:14:20.071Z,59.25
2022-08-22T17:17:11.087Z,58.75
2022-08-22T17:20:04.677Z,59.15
2022-08-22T17:22:55.835Z,60.61
2022-08-22T17:26:26.003Z,60.74
2022-08-22T17:29:38.384Z,61.05
2022-08-22T17:32:32.548Z,62.66
2022-08-22T17:35:32.886Z,64.49
2022-08-22T17:38:32.165Z,63.31
2022-08-22T17:41:38.050Z,62.97
2022-08-22T17:44:49.500Z,62.69
2022-08-22T17:47:46.940Z,63.20
2022-08-22T17:50:54.108Z,63.21
2022-08-22T17:53:53.563Z,63.59
2022-08-22T17:57:05.375Z,64.12
2022-08-22T18:00:00.507Z,65.88
2022-08-22T18:03:23.548Z,66.21
2022-08-22T18:06:23.608Z,65.50
2022-08-22T18:09:25.478Z,65.23
2022-08-22T18:12:20.420Z,65.97
2022-08-22T18:15:13.454Z,65.27
2022-08-22T18:18:31.202Z,67.81
2022-08-22T18:21:30.384Z,65.39
2022-08-22T18:24:49.523Z,64.91
2022-08-22T18:27:59.670Z,64.97
2022-08-22T18:30:55.227Z,69.16
2022-08-22T18:33:53.782Z,66.79
2022-08-22T18:36:48.720Z,65.79
2022-08-22T18:39:46.606Z,63.28
2022-08-22T18:42:41.179Z,63.39
2022-08-22T18:45:45.262Z,62.03
2022-08-22T18:48:59.224Z,62.29
2022-08-22T18:52:05.237Z,64.28
2022-08-22T18:55:18.153Z,62.13
2022-08-22T18:58:26.718Z,61.57
2022-08-22T19:01:47.103Z,60.74
2022-08-22T19:05:10.041Z,60.55
2022-08-22T19:08:04.307Z,62.49
2022-08-22T19:11:36.848Z,62.54
2022-08-22T19:14:25.084Z,60.68
2022-08-22T19:18:01.110Z,61.42
2022-08-22T19:21:32.352Z,62.08
2022-08-22T19:24:20.316Z,62.34
2022-08-22T19:27:18.154Z,60.90
2022-08-22T19:30:28.089Z,60.32
2022-08-22T19:33:19.314Z,60.06
2022-08-22T19:36:30.016Z,62.55
2022-08-22T19:39:41.139Z,60.02
2022-08-22T19:42:26.373Z,59.16
2022-08-22T19:45:25.877Z,58.43
2022-08-22T19:48:14.379Z,61.79
2022-08-22T19:51:27.419Z,61.69
2022-08-22T19:54:22.299Z,60.14
2022-08-22T19:57:35.440Z,60.19
2022-08-22T20:00:38.965Z,61.41
2022-08-22T20:03:53.701Z,62.06
2022-08-22T20:07:03.820Z,60.98
2022-08-22T20:10:14.672Z,61.65
2022-08-22T20:13:00.112Z,61.88
2022-08-22T20:16:04.236Z,62.59
2022-08-22T20:19:15.314Z,60.37
2022-08-22T20:22:03.528Z,61.25
2022-08-22T20:24:52.258Z,63.02
2022-08-22T20:27:47.925Z,61.40
2022-08-22T20:30:42.891Z,62.80
2022-08-22T20:33:33.154Z,63.56
2022-08-22T20:36:27.848Z,65.33
2022-08-22T20:39:35.769Z,65.53
2022-08-22T20:42:21.370Z,62.92
2022-08-22T20:45:12.182Z,63.61
2022-08-22T20:47:57.949Z,67.09
2022-08-22T20:50:43.392Z,64.45
2022-08-22T20:53:28.601Z,63.60
2022-08-22T20:56:14.124Z,63.65
2022-08-22T20:59:01.214Z,62.47
2022-08-22T21:01:47.234Z,62.18
2022-08-22T21:04:49.629Z,61.86
2022-08-22T21:07:41.390Z,62.19
2022-08-22T21:10:30.371Z,61.92
2022-08-22T21:13:26.174Z,62.11
2022-08-22T21:16:16.562Z,62.52
2022-08-22T21:19:01.952Z,62.30
2022-08-22T21:21:47.256Z,62.16
2022-08-22T21:24:32.719Z,62.47
2022-08-22T21:27:26.836Z,62.36
2022-08-22T21:30:24.822Z,63.19
2022-08-22T21:33:23.696Z,62.19
2022-08-22T21:36:13.603Z,62.21
2022-08-22T21:39:11.361Z,63.39
2022-08-22T21:41:59.721Z,61.77
2022-08-22T21:44:59.130Z,61.72
2022-08-22T21:47:44.777Z,62.30
2022-08-22T21:50:33.730Z,61.00
2022-08-22T21:53:27.143Z,61.50
2022-08-22T21:56:15.332Z,60.52
2022-08-22T21:59:51.934Z,60.78
2022-08-22T22:02:44.412Z,60.95
2022-08-22T22:05:29.787Z,61.01
2022-08-22T22:08:15.688Z,60.63
2022-08-22T22:11:06.157Z,60.79
2022-08-22T22:13:53.860Z,60.21
2022-08-22T22:16:39.342Z,61.02
2022-08-22T22:19:24.313Z,60.27
2022-08-22T22:22:09.546Z,60.18
2022-08-22T22:24:54.751Z,60.28
2022-08-22T22:27:40.216Z,61.26
2022-08-22T22:30:25.486Z,60.62
2022-08-22T22:33:10.567Z,60.83
2022-08-22T22:35:58.734Z,61.87
2022-08-22T22:38:44.398Z,61.92
2022-08-22T22:41:29.578Z,60.95
2022-08-22T22:44:14.510Z,61.97
2022-08-22T22:47:02.618Z,62.19
2022-08-22T22:49:47.947Z,61.94
2022-08-22T22:52:33.089Z,60.90
2022-08-22T22:55:24.363Z,61.22
2022-08-22T22:58:10.308Z,61.64
2022-08-22T23:00:56.337Z,62.29
2022-08-22T23:03:42.697Z,60.69
2022-08-22T23:06:30.162Z,62.14
2022-08-22T23:09:15.497Z,61.46
2022-08-22T23:12:03.737Z,61.89
2022-08-22T23:14:49.261Z,61.40
2022-08-22T23:17:35.120Z,63.28
2022-08-22T23:20:20.235Z,62.35
2022-08-22T23:23:05.763Z,64.20
2022-08-22T23:25:50.630Z,62.81
2022-08-22T23:28:35.477Z,61.27
2022-08-22T23:31:32.626Z,61.18
2022-08-22T23:34:21.984Z,62.44
2022-08-22T23:37:07.644Z,62.93
2022-08-22T23:39:53.050Z,62.47
2022-08-22T23:42:39.031Z,61.36
2022-08-22T23:45:24.003Z,60.48
2022-08-22T23:48:09.420Z,60.99
2022-08-22T23:50:54.859Z,60.24
2022-08-22T23:53:40.646Z,60.09
2022-08-22T23:56:36.456Z,59.58
2022-08-22T23:59:24.901Z,60.14
